Time;durP1;ratioP1;P1;durP2;ratioP2;P2;SDS_P1;SDS_P2;PMS_P1;PMS_P2;Temp;Humidity;BMP_temperature;BMP_pressure;BME280_temperature;BME280_humidity;BME280_pressure;Samples;Min_cycle;Max_cycle;Signal;HPM_P1;HPM_P2
2022/08/12 00:43:56;;;;;;;7.30;3.17;;;;;;;;;;10405233;28;20674;-72
2022/08/12 00:48:57;;;;;;;4.27;2.97;;;;;;;;;;10391580;28;20666;-71
2022/08/12 00:53:58;;;;;;;5.17;2.77;;;;;;;;;;10401024;28;20718;-73
2022/08/12 00:59:03;;;;;;;4.77;2.67;;;;;;;;;;10398440;28;20232;-72
2022/08/12 01:14:48;;;;;;;3.80;2.90;;;;;;;;;;10389541;28;20249;-73
2022/08/12 01:19:51;;;;;;;5.40;2.50;;;;;;;;;;10394537;28;20290;-72
2022/08/12 01:25:12;;;;;;;2.70;2.40;;;;;;;;;;10391011;28;20226;-72
2022/08/12 01:30:14;;;;;;;6.63;2.77;;;;;;;;;;10391416;28;20312;-72
2022/08/12 01:35:19;;;;;;;5.90;2.80;;;;;;;;;;10396472;28;20185;-73
2022/08/12 01:40:24;;;;;;;4.67;2.70;;;;;;;;;;10387753;28;20219;-73
2022/08/12 01:45:31;;;;;;;8.33;2.40;;;;;;;;;;10401004;28;20374;-72
2022/08/12 01:50:40;;;;;;;7.90;2.60;;;;;;;;;;10397230;28;20231;-71
2022/08/12 01:55:42;;;;;;;3.90;2.20;;;;;;;;;;10388111;28;20227;-73
2022/08/12 02:00:50;;;;;;;5.27;2.50;;;;;;;;;;10386642;28;20236;-73
2022/08/12 02:11:34;;;;;;;2.27;2.07;;;;;;;;;;10387272;28;20866;-71
2022/08/12 02:16:56;;;;;;;3.10;2.13;;;;;;;;;;10397479;28;20221;-73
2022/08/12 02:22:06;;;;;;;3.90;2.13;;;;;;;;;;10382906;28;20235;-72
2022/08/12 02:27:09;;;;;;;5.67;2.40;;;;;;;;;;10398661;28;20232;-72
2022/08/12 02:32:11;;;;;;;5.27;2.70;;;;;;;;;;10402533;28;20233;-73
2022/08/12 02:37:14;;;;;;;4.20;2.40;;;;;;;;;;10398232;28;20274;-72
2022/08/12 02:42:16;;;;;;;5.37;2.50;;;;;;;;;;10402675;28;20743;-73
2022/08/12 02:47:19;;;;;;;6.30;2.40;;;;;;;;;;10399829;28;20220;-72
2022/08/12 02:52:25;;;;;;;6.97;2.73;;;;;;;;;;10393464;28;20232;-73
2022/08/12 02:57:26;;;;;;;8.03;2.60;;;;;;;;;;10400827;28;20628;-72
2022/08/12 03:02:30;;;;;;;10.83;2.53;;;;;;;;;;10399968;28;20235;-73
2022/08/12 03:07:36;;;;;;;2.73;2.50;;;;;;;;;;10399498;28;20636;-73
2022/08/12 03:12:39;;;;;;;6.90;2.70;;;;;;;;;;10399906;28;20220;-73
2022/08/12 03:17:43;;;;;;;7.17;2.50;;;;;;;;;;10393542;28;20229;-74
2022/08/12 03:22:45;;;;;;;6.77;2.40;;;;;;;;;;10399805;28;20221;-73
2022/08/12 03:27:48;;;;;;;5.83;2.53;;;;;;;;;;10391594;28;20225;-73
2022/08/12 03:32:50;;;;;;;4.47;2.30;;;;;;;;;;10399971;28;20294;-72
2022/08/12 03:37:53;;;;;;;5.23;2.30;;;;;;;;;;10398195;28;20292;-73
2022/08/12 04:04:15;;;;;;;5.40;2.80;;;;;;;;;;10389068;28;20227;-73
2022/08/12 04:09:18;;;;;;;4.43;3.10;;;;;;;;;;10393054;28;20299;-72
2022/08/12 04:14:19;;;;;;;4.07;2.87;;;;;;;;;;10399051;28;20312;-72
2022/08/12 04:19:23;;;;;;;6.33;2.77;;;;;;;;;;10396161;28;20227;-74
2022/08/12 04:24:25;;;;;;;8.23;2.80;;;;;;;;;;10389170;28;20228;-74
2022/08/12 04:29:26;;;;;;;6.07;2.70;;;;;;;;;;10390846;28;20228;-72
2022/08/12 04:34:30;;;;;;;4.27;2.47;;;;;;;;;;10391331;28;20219;-72
2022/08/12 04:39:32;;;;;;;3.03;2.73;;;;;;;;;;10402291;28;20224;-73
2022/08/12 04:44:34;;;;;;;10.40;2.90;;;;;;;;;;10396730;28;20252;-72
2022/08/12 04:49:35;;;;;;;5.57;2.40;;;;;;;;;;10396797;28;20806;-73
2022/08/12 04:54:37;;;;;;;4.93;2.20;;;;;;;;;;10388339;28;20220;-72
2022/08/12 04:59:38;;;;;;;7.60;2.90;;;;;;;;;;10387630;28;20740;-73
2022/08/12 05:04:42;;;;;;;3.83;2.13;;;;;;;;;;10395794;28;20216;-73
2022/08/12 05:09:44;;;;;;;3.27;2.43;;;;;;;;;;10403464;28;20213;-73
2022/08/12 05:14:45;;;;;;;6.57;2.53;;;;;;;;;;10393799;28;20223;-73
2022/08/12 05:19:46;;;;;;;6.50;2.83;;;;;;;;;;10395696;28;20228;-72
2022/08/12 05:24:47;;;;;;;6.70;2.53;;;;;;;;;;10394134;28;20213;-73
2022/08/12 05:29:48;;;;;;;4.43;2.43;;;;;;;;;;10381027;28;20275;-74
2022/08/12 05:34:50;;;;;;;14.23;2.83;;;;;;;;;;10402271;28;20221;-72
2022/08/12 05:39:50;;;;;;;10.37;2.30;;;;;;;;;;10394131;28;20225;-73
2022/08/12 05:44:51;;;;;;;6.57;2.40;;;;;;;;;;10388634;28;20209;-73
2022/08/12 05:49:53;;;;;;;9.10;2.90;;;;;;;;;;10394543;28;20235;-71
2022/08/12 05:54:53;;;;;;;5.43;2.50;;;;;;;;;;10398208;28;20261;-73
2022/08/12 05:59:54;;;;;;;4.83;2.30;;;;;;;;;;10401083;28;20224;-73
2022/08/12 06:04:59;;;;;;;4.13;2.33;;;;;;;;;;10398252;28;20224;-73
2022/08/12 06:10:00;;;;;;;3.37;2.60;;;;;;;;;;10395013;28;20236;-72
2022/08/12 06:15:01;;;;;;;2.97;2.17;;;;;;;;;;10398809;28;20753;-73
2022/08/12 06:20:02;;;;;;;4.13;2.80;;;;;;;;;;10402419;28;20312;-73
2022/08/12 06:25:04;;;;;;;8.97;2.17;;;;;;;;;;10397760;28;20687;-73
2022/08/12 06:30:07;;;;;;;6.53;2.37;;;;;;;;;;10376730;28;20317;-72
2022/08/12 06:35:09;;;;;;;5.97;2.77;;;;;;;;;;10402884;28;20182;-72
2022/08/12 06:40:10;;;;;;;7.17;2.17;;;;;;;;;;10394518;28;20262;-71
2022/08/12 06:45:14;;;;;;;7.20;2.23;;;;;;;;;;10404711;28;20555;-72
2022/08/12 06:50:15;;;;;;;3.87;2.03;;;;;;;;;;10378913;28;20212;-73
2022/08/12 06:55:19;;;;;;;4.03;1.93;;;;;;;;;;10400897;28;20193;-71
2022/08/12 07:00:24;;;;;;;5.80;2.30;;;;;;;;;;10398780;28;20228;-72
2022/08/12 07:05:26;;;;;;;4.77;2.10;;;;;;;;;;10393508;28;20241;-71
2022/08/12 07:10:27;;;;;;;5.27;2.27;;;;;;;;;;10406770;28;20228;-71
2022/08/12 07:15:30;;;;;;;2.10;1.90;;;;;;;;;;10401152;28;20288;-72
2022/08/12 07:20:34;;;;;;;3.60;2.07;;;;;;;;;;10392704;28;20286;-73
2022/08/12 07:25:36;;;;;;;5.03;2.00;;;;;;;;;;10392234;28;20217;-73
2022/08/12 07:30:38;;;;;;;4.67;2.00;;;;;;;;;;10399077;28;20228;-73
2022/08/12 07:35:46;;;;;;;6.33;2.27;;;;;;;;;;10397703;28;20248;-73
2022/08/12 07:40:47;;;;;;;5.67;2.20;;;;;;;;;;10397230;28;20235;-73
2022/08/12 07:45:49;;;;;;;4.97;2.33;;;;;;;;;;10390668;28;20227;-72
2022/08/12 07:50:50;;;;;;;7.40;2.20;;;;;;;;;;10390027;28;20308;-72
2022/08/12 07:55:51;;;;;;;6.63;2.30;;;;;;;;;;10398371;28;20212;-72
2022/08/12 08:00:56;;;;;;;5.07;2.43;;;;;;;;;;10396227;28;20225;-72
2022/08/12 08:05:58;;;;;;;2.57;2.17;;;;;;;;;;10391136;28;20767;-72
2022/08/12 08:16:19;;;;;;;5.00;2.20;;;;;;;;;;10390303;28;20225;-72
2022/08/12 08:21:20;;;;;;;5.77;1.97;;;;;;;;;;10388808;28;20332;-72
2022/08/12 08:26:23;;;;;;;3.87;1.63;;;;;;;;;;10395437;28;20224;-73
2022/08/12 08:31:24;;;;;;;3.93;1.77;;;;;;;;;;10396638;28;20221;-73
2022/08/12 08:36:26;;;;;;;3.80;1.60;;;;;;;;;;10397905;28;20221;-72
2022/08/12 08:46:48;;;;;;;2.93;1.73;;;;;;;;;;10389081;28;20228;-72
2022/08/12 08:51:49;;;;;;;4.57;1.60;;;;;;;;;;10383376;28;20272;-71
2022/08/12 08:56:51;;;;;;;3.20;1.50;;;;;;;;;;10376756;28;20757;-73
2022/08/12 09:01:52;;;;;;;5.60;1.67;;;;;;;;;;10386322;28;20221;-73
2022/08/12 09:06:55;;;;;;;6.33;1.90;;;;;;;;;;10392558;28;20224;-71
2022/08/12 09:17:21;;;;;;;4.10;1.60;;;;;;;;;;10388444;28;20233;-72
2022/08/12 09:22:21;;;;;;;7.63;1.60;;;;;;;;;;10391841;28;20283;-73
2022/08/12 09:27:25;;;;;;;4.37;1.87;;;;;;;;;;10395426;28;20303;-72
2022/08/12 09:32:27;;;;;;;8.70;1.80;;;;;;;;;;10396200;28;20279;-72
2022/08/12 09:37:28;;;;;;;3.03;1.53;;;;;;;;;;10392956;28;20224;-72
2022/08/12 09:47:52;;;;;;;2.00;1.43;;;;;;;;;;10389586;28;20233;-73
2022/08/12 09:53:15;;;;;;;6.13;2.20;;;;;;;;;;10391384;28;20224;-73
2022/08/12 09:58:16;;;;;;;2.63;1.40;;;;;;;;;;10392586;28;20283;-73
2022/08/12 10:03:20;;;;;;;3.10;1.50;;;;;;;;;;10393172;28;20945;-73
2022/08/12 10:08:22;;;;;;;4.20;1.70;;;;;;;;;;10386450;28;20248;-71
2022/08/12 10:13:42;;;;;;;3.07;1.53;;;;;;;;;;10389564;28;20220;-72
2022/08/12 10:18:45;;;;;;;3.90;1.60;;;;;;;;;;10385425;28;20233;-74
2022/08/12 10:23:47;;;;;;;3.57;1.63;;;;;;;;;;10386030;28;20216;-72
2022/08/12 10:34:08;;;;;;;2.53;1.47;;;;;;;;;;10394353;28;20311;-72
2022/08/12 10:39:11;;;;;;;1.67;1.33;;;;;;;;;;10395640;28;20257;-72
2022/08/12 10:44:12;;;;;;;4.37;1.57;;;;;;;;;;10396521;28;20224;-73
2022/08/12 10:49:15;;;;;;;3.00;1.60;;;;;;;;;;10397591;28;20247;-72
2022/08/12 10:54:16;;;;;;;4.43;1.50;;;;;;;;;;10402450;28;20342;-73
2022/08/12 10:59:20;;;;;;;3.80;1.47;;;;;;;;;;10397257;28;20228;-73
2022/08/12 11:04:21;;;;;;;2.33;1.53;;;;;;;;;;10385293;28;20223;-73
2022/08/12 11:09:26;;;;;;;3.10;1.77;;;;;;;;;;10399925;28;20680;-74
2022/08/12 11:14:28;;;;;;;4.17;1.40;;;;;;;;;;10400858;28;20235;-72
2022/08/12 11:19:30;;;;;;;1.87;1.73;;;;;;;;;;10400320;28;20505;-73
2022/08/12 11:24:31;;;;;;;4.93;1.40;;;;;;;;;;10400477;28;20303;-73
2022/08/12 11:29:32;;;;;;;5.00;1.50;;;;;;;;;;10401239;28;20308;-73
2022/08/12 11:34:36;;;;;;;4.13;1.60;;;;;;;;;;10395490;28;20216;-71
2022/08/12 11:39:37;;;;;;;3.07;1.33;;;;;;;;;;10394484;28;20221;-73
2022/08/12 11:44:38;;;;;;;3.97;1.67;;;;;;;;;;10397675;28;20670;-73
2022/08/12 11:49:39;;;;;;;3.90;1.70;;;;;;;;;;10388510;28;20699;-74
2022/08/12 11:54:40;;;;;;;3.90;1.70;;;;;;;;;;10389198;28;20240;-71
2022/08/12 11:59:41;;;;;;;4.03;1.70;;;;;;;;;;10389984;28;20263;-73
2022/08/12 12:04:42;;;;;;;2.03;1.63;;;;;;;;;;10390455;28;20284;-72
2022/08/12 12:09:43;;;;;;;3.87;1.40;;;;;;;;;;10398804;28;20228;-73
2022/08/12 12:14:44;;;;;;;5.70;1.80;;;;;;;;;;10395249;28;20266;-73
2022/08/12 12:19:48;;;;;;;4.13;1.40;;;;;;;;;;10391268;28;20228;-73
2022/08/12 12:24:50;;;;;;;2.60;1.60;;;;;;;;;;10396992;28;20212;-72
2022/08/12 12:29:50;;;;;;;2.60;1.30;;;;;;;;;;10395085;28;20228;-73
2022/08/12 12:34:51;;;;;;;7.07;2.23;;;;;;;;;;10389110;28;20221;-72
2022/08/12 12:39:52;;;;;;;4.43;1.20;;;;;;;;;;10391484;28;20239;-71
2022/08/12 12:44:54;;;;;;;2.30;1.70;;;;;;;;;;10394309;28;20650;-72
2022/08/12 12:49:54;;;;;;;5.00;1.40;;;;;;;;;;10402386;28;20627;-72
2022/08/12 12:54:57;;;;;;;4.43;1.37;;;;;;;;;;10395576;28;20220;-72
2022/08/12 13:00:13;;;;;;;1.77;1.50;;;;;;;;;;10390968;28;20299;-72
2022/08/12 13:05:14;;;;;;;3.77;1.10;;;;;;;;;;10391019;28;20227;-71
2022/08/12 13:10:15;;;;;;;1.73;1.50;;;;;;;;;;10404769;28;20193;-73
2022/08/12 13:15:17;;;;;;;2.50;1.20;;;;;;;;;;10397009;28;20189;-72
2022/08/12 13:20:19;;;;;;;6.93;1.53;;;;;;;;;;10396675;28;20217;-72
2022/08/12 13:25:20;;;;;;;5.03;1.63;;;;;;;;;;10396508;28;20197;-72
2022/08/12 13:30:22;;;;;;;4.50;1.40;;;;;;;;;;10386274;28;20195;-73
2022/08/12 13:35:23;;;;;;;7.10;1.70;;;;;;;;;;10393421;28;20197;-72
2022/08/12 13:40:25;;;;;;;1.83;1.50;;;;;;;;;;10393247;28;21607;-72
2022/08/12 13:45:27;;;;;;;4.70;1.90;;;;;;;;;;10387556;28;20764;-72
2022/08/12 13:50:35;;;;;;;4.70;1.63;;;;;;;;;;10384653;28;20644;-72
2022/08/12 13:55:44;;;;;;;4.77;1.30;;;;;;;;;;10393572;28;20225;-72
2022/08/12 14:00:46;;;;;;;1.47;1.20;;;;;;;;;;10384591;28;20225;-71
2022/08/12 14:05:47;;;;;;;1.63;1.47;;;;;;;;;;10393061;28;20217;-72
2022/08/12 14:10:54;;;;;;;1.40;1.00;;;;;;;;;;10388604;28;20300;-71
2022/08/12 14:16:03;;;;;;;1.97;1.13;;;;;;;;;;10400148;28;20219;-72
2022/08/12 14:21:08;;;;;;;2.13;1.37;;;;;;;;;;10397909;28;20232;-72
2022/08/12 14:26:11;;;;;;;1.40;1.30;;;;;;;;;;10412541;28;20697;-72
2022/08/12 14:31:12;;;;;;;1.80;1.27;;;;;;;;;;10399407;28;20593;-72
2022/08/12 14:36:14;;;;;;;2.47;1.27;;;;;;;;;;10391189;28;20226;-72
2022/08/12 14:41:21;;;;;;;4.17;1.33;;;;;;;;;;10395810;28;20233;-73
2022/08/12 14:46:22;;;;;;;3.60;1.10;;;;;;;;;;10400810;28;20232;-72
2022/08/12 14:51:27;;;;;;;1.50;1.30;;;;;;;;;;10406065;28;20224;-72
2022/08/12 14:56:28;;;;;;;2.20;1.10;;;;;;;;;;10391028;28;20249;-72
2022/08/12 15:01:40;;;;;;;2.87;1.20;;;;;;;;;;10398859;28;20573;-75
2022/08/12 15:06:42;;;;;;;3.20;1.27;;;;;;;;;;10392533;28;20329;-72
2022/08/12 15:11:43;;;;;;;2.37;1.30;;;;;;;;;;10399500;28;20600;-71
2022/08/12 15:16:44;;;;;;;5.07;1.47;;;;;;;;;;10400107;28;20228;-72
2022/08/12 15:21:45;;;;;;;3.00;1.30;;;;;;;;;;10398319;28;20232;-73
2022/08/12 15:26:46;;;;;;;2.63;1.20;;;;;;;;;;10398570;28;20220;-72
2022/08/12 15:31:47;;;;;;;4.70;1.50;;;;;;;;;;10401711;28;20320;-72
2022/08/12 15:36:48;;;;;;;5.10;1.27;;;;;;;;;;10393133;28;20221;-72
2022/08/12 15:41:49;;;;;;;3.47;1.30;;;;;;;;;;10396590;28;20224;-73
2022/08/12 15:46:51;;;;;;;1.60;1.20;;;;;;;;;;10400612;28;20231;-73
2022/08/12 15:51:52;;;;;;;1.67;1.30;;;;;;;;;;10398002;28;20252;-71
2022/08/12 15:56:54;;;;;;;2.10;1.57;;;;;;;;;;10395548;28;20801;-71
2022/08/12 16:01:56;;;;;;;2.90;1.30;;;;;;;;;;10389154;28;20696;-72
2022/08/12 16:06:57;;;;;;;4.90;1.30;;;;;;;;;;10390305;28;20229;-73
2022/08/12 16:12:02;;;;;;;4.13;1.30;;;;;;;;;;10395078;28;20216;-72
2022/08/12 16:17:03;;;;;;;4.07;1.43;;;;;;;;;;10391754;28;20221;-73
2022/08/12 16:22:05;;;;;;;2.73;1.37;;;;;;;;;;10394691;28;20229;-72
2022/08/12 16:27:06;;;;;;;5.33;1.30;;;;;;;;;;10375728;28;20221;-72
2022/08/12 16:32:08;;;;;;;1.77;1.20;;;;;;;;;;10391777;28;20247;-72
2022/08/12 16:37:12;;;;;;;2.77;1.30;;;;;;;;;;10400735;28;20264;-73
2022/08/12 16:42:14;;;;;;;5.73;1.53;;;;;;;;;;10396260;28;20277;-72
2022/08/12 16:47:22;;;;;;;3.90;1.07;;;;;;;;;;10391601;28;20700;-72
2022/08/12 16:52:23;;;;;;;5.73;1.37;;;;;;;;;;10388788;28;20300;-71
2022/08/12 16:57:24;;;;;;;2.80;1.20;;;;;;;;;;10394167;28;20213;-73
2022/08/12 17:02:25;;;;;;;4.30;1.30;;;;;;;;;;10388975;28;20220;-72
2022/08/12 17:07:27;;;;;;;5.37;1.37;;;;;;;;;;10387139;28;20228;-72
2022/08/12 17:12:28;;;;;;;7.57;1.43;;;;;;;;;;10394849;28;20213;-71
2022/08/12 17:17:32;;;;;;;1.87;1.13;;;;;;;;;;10398249;28;20233;-72
2022/08/12 17:22:35;;;;;;;2.27;1.07;;;;;;;;;;10386516;28;20763;-71
2022/08/12 17:27:39;;;;;;;2.10;0.90;;;;;;;;;;10394521;28;20217;-72
2022/08/12 17:32:42;;;;;;;2.30;1.00;;;;;;;;;;10387855;28;20256;-73
2022/08/12 17:37:43;;;;;;;1.87;1.00;;;;;;;;;;10393169;28;20691;-72
2022/08/12 17:42:45;;;;;;;3.90;1.97;;;;;;;;;;10386567;28;20224;-74
2022/08/12 17:47:50;;;;;;;1.50;1.03;;;;;;;;;;10376693;28;20235;-73
2022/08/12 17:52:52;;;;;;;2.50;1.17;;;;;;;;;;10388355;28;20219;-72
2022/08/12 17:57:56;;;;;;;3.73;1.13;;;;;;;;;;10388466;28;20256;-72
2022/08/12 18:02:58;;;;;;;2.47;1.20;;;;;;;;;;10395347;28;20658;-73
2022/08/12 18:08:00;;;;;;;6.03;0.80;;;;;;;;;;10391129;28;20703;-71
2022/08/12 18:13:01;;;;;;;3.13;1.10;;;;;;;;;;10388278;28;20227;-73
2022/08/12 18:18:04;;;;;;;2.63;1.03;;;;;;;;;;10394122;28;20313;-72
2022/08/12 18:23:06;;;;;;;2.30;0.90;;;;;;;;;;10377862;28;20235;-72
2022/08/12 18:28:10;;;;;;;2.57;1.13;;;;;;;;;;10390853;28;20255;-73
2022/08/12 18:33:11;;;;;;;2.90;0.97;;;;;;;;;;10397195;28;20212;-73
2022/08/12 18:38:13;;;;;;;2.57;1.03;;;;;;;;;;10391076;28;20249;-72
2022/08/12 18:43:18;;;;;;;2.67;1.30;;;;;;;;;;10400375;28;20220;-71
2022/08/12 18:48:19;;;;;;;2.37;1.20;;;;;;;;;;10395728;28;20260;-71
2022/08/12 18:53:21;;;;;;;4.23;1.40;;;;;;;;;;10388365;28;20723;-70
2022/08/12 18:58:22;;;;;;;5.17;1.33;;;;;;;;;;10396681;28;20278;-73
2022/08/12 19:03:24;;;;;;;3.07;1.10;;;;;;;;;;10388070;28;20236;-71
2022/08/12 19:08:28;;;;;;;6.13;1.40;;;;;;;;;;10401084;28;20603;-71
2022/08/12 19:18:53;;;;;;;0.90;0.90;;;;;;;;;;10394017;28;20700;-72
2022/08/12 19:29:19;;;;;;;2.03;1.20;;;;;;;;;;10395030;28;20229;-72
2022/08/12 19:34:21;;;;;;;2.87;1.20;;;;;;;;;;10391986;28;20264;-73
2022/08/12 19:39:22;;;;;;;1.00;1.00;;;;;;;;;;10404626;28;20328;-73
2022/08/12 19:44:23;;;;;;;2.60;1.30;;;;;;;;;;10392118;28;20304;-72
2022/08/12 19:49:24;;;;;;;2.30;1.13;;;;;;;;;;10390832;28;20715;-74
2022/08/12 19:54:28;;;;;;;3.63;1.60;;;;;;;;;;10396847;28;20270;-71
2022/08/12 19:59:36;;;;;;;2.73;1.60;;;;;;;;;;10390790;28;20834;-72
2022/08/12 20:04:41;;;;;;;2.30;1.30;;;;;;;;;;10388810;28;20588;-71
2022/08/12 20:09:45;;;;;;;3.47;1.83;;;;;;;;;;10388737;28;20221;-72
2022/08/12 20:14:48;;;;;;;4.73;1.63;;;;;;;;;;10397879;28;20221;-72
2022/08/12 20:19:53;;;;;;;5.70;1.60;;;;;;;;;;10390802;28;20224;-72
2022/08/12 20:24:57;;;;;;;4.43;2.00;;;;;;;;;;10400650;28;20227;-71
2022/08/12 20:29:59;;;;;;;1.70;1.60;;;;;;;;;;10383346;28;20300;-71
2022/08/12 20:35:00;;;;;;;8.10;1.70;;;;;;;;;;10404036;28;20234;-72
2022/08/12 20:40:01;;;;;;;3.87;1.50;;;;;;;;;;10396941;28;20228;-72
2022/08/12 20:45:03;;;;;;;4.07;1.50;;;;;;;;;;10399954;28;20219;-72
2022/08/12 20:50:18;;;;;;;5.30;1.57;;;;;;;;;;10401706;28;20756;-74
2022/08/12 20:55:19;;;;;;;3.67;1.60;;;;;;;;;;10393548;28;20219;-72
2022/08/12 21:00:22;;;;;;;3.40;1.50;;;;;;;;;;10388648;28;20628;-72
2022/08/12 21:10:45;;;;;;;5.23;1.37;;;;;;;;;;10389234;28;20215;-73
2022/08/12 21:15:46;;;;;;;2.53;1.30;;;;;;;;;;10396484;28;20592;-73
2022/08/12 21:20:52;;;;;;;6.30;1.67;;;;;;;;;;10389091;28;20227;-72
2022/08/12 21:25:55;;;;;;;1.97;1.20;;;;;;;;;;10399921;28;20243;-72
2022/08/12 21:30:56;;;;;;;6.17;1.43;;;;;;;;;;10390608;28;20257;-72
2022/08/12 21:35:59;;;;;;;5.17;1.80;;;;;;;;;;10394009;28;20229;-72
2022/08/12 21:41:00;;;;;;;4.30;2.20;;;;;;;;;;10395880;28;20228;-72
2022/08/12 21:46:02;;;;;;;4.20;2.50;;;;;;;;;;10392647;28;20674;-72
2022/08/12 21:51:03;;;;;;;1.97;1.77;;;;;;;;;;10388689;28;20226;-72
2022/08/12 21:56:13;;;;;;;2.90;1.63;;;;;;;;;;10391837;28;20211;-74
2022/08/12 22:01:15;;;;;;;2.73;1.40;;;;;;;;;;10392272;28;20236;-72
2022/08/12 22:06:19;;;;;;;1.50;1.13;;;;;;;;;;10390429;28;20691;-72
2022/08/12 22:11:23;;;;;;;1.93;1.20;;;;;;;;;;10389981;28;20232;-72
2022/08/12 22:16:24;;;;;;;0.90;0.90;;;;;;;;;;10389499;28;20226;-73
2022/08/12 22:21:25;;;;;;;3.03;1.30;;;;;;;;;;10394105;28;20692;-72
2022/08/12 22:26:25;;;;;;;3.47;1.37;;;;;;;;;;10395373;28;20304;-72
2022/08/12 22:31:27;;;;;;;4.97;1.43;;;;;;;;;;10393345;28;20247;-73
2022/08/12 22:36:28;;;;;;;1.77;1.13;;;;;;;;;;10405304;28;20216;-72
2022/08/12 22:52:04;;;;;;;1.40;1.30;;;;;;;;;;10397151;28;20228;-71
2022/08/12 22:57:06;;;;;;;2.93;1.20;;;;;;;;;;10398382;28;20225;-71
2022/08/12 23:02:07;;;;;;;2.43;1.00;;;;;;;;;;10396589;28;20239;-72
2022/08/12 23:07:09;;;;;;;1.63;1.00;;;;;;;;;;10397231;28;20225;-72
2022/08/12 23:12:10;;;;;;;1.77;1.10;;;;;;;;;;10395824;28;20720;-72
2022/08/12 23:17:11;;;;;;;1.50;1.40;;;;;;;;;;10399360;28;20257;-72
2022/08/12 23:22:12;;;;;;;5.03;1.10;;;;;;;;;;10400188;28;20273;-72
2022/08/12 23:32:33;;;;;;;1.77;1.10;;;;;;;;;;10392402;28;20275;-72
2022/08/12 23:37:34;;;;;;;1.27;1.00;;;;;;;;;;10386360;28;20267;-72
2022/08/12 23:42:35;;;;;;;2.80;1.20;;;;;;;;;;10387369;28;20209;-72
2022/08/12 23:47:36;;;;;;;1.93;0.90;;;;;;;;;;10395610;28;20221;-71
2022/08/12 23:52:41;;;;;;;1.87;1.17;;;;;;;;;;10387739;28;20233;-72
2022/08/12 23:57:42;;;;;;;2.63;1.33;;;;;;;;;;10387774;28;20221;-72
